Página principal
METAR-TAF:

METAR-TAF

Aeroportos :

Nelson Lagoon, Alasca, Estados Unidos

latitude: 56-00-27N, longitude: 161-09-37W, altura: 4 m

Observação actual do tempo

O boletim foi feito há 21 minutos, às 07:34 UTC
Vento 6 kt de es-nordeste
Temperatura 6°C
Humidade 100%
Pressão 1014 hPa
Visibilidade: 0.8 km
Encobertoa uma altura de 200 ft
chuva fraca, nevoeiro

METAR: PAOU 250734Z AUTO 06006KT 1/2SM -RA FG OVC002 06/06 A2995 RMK AO2 PNO $

Hora: 23:55 (07:55 UTC)


TAF: em falta

Observações e previsões do tempo de mais de 4000 aeroportos (mensagens METAR e TAF).

As estações disponíveis são os pontos amarelos e vermelhos sobre o mapa.

Mova o rato sobre o mapa para ver o nome da estação.

Depois clique no ponto para visualizar as observações e previsões meteorológicas.

Para alterar o mapa : clique nos botões verdes com uma cruz preta para aumentar o zoom; no botão verde com uma pitada de zoom; ou nas setas verdes para mapas adjacentes.


METAR-TAF: